LFBH

La Rochelle-Île de Ré Airport

La Rochelle/Île de Ré, France
TAF LFBH 181100Z 1812/1912 18005KT CAVOK BECMG 1812/1814 30010KT BECMG 1822/1824 BKN013 BECMG 1901/1903 0500 FG VV/// BECMG 1905/1907 9999 NSW BKN016
Issued Valid From Valid To
Sep-18 @ 11:00 UTC
(7 hours ago)
Sep-18 @ 12:00 UTC
(6 hours ago)
Sep-19 @ 12:00 UTC
(in 18 hours)
Sep-18 @ 12:00 to Sep-19 @ 12:00
TAF LFBH 181100Z 1812/1912 18005KT CAVOK
Wind Visibility Clouds Conditions
180° at 5 knots 10,000+ meters
  • No significant clouds
Becoming Sep-18 @ 12:00 to Sep-18 @ 22:00
BECMG 1812/1814 30010KT
Wind Visibility Clouds Conditions
300° at 10 knots 10,000+ meters
  • No significant clouds
Becoming Sep-18 @ 22:00 to Sep-19 @ 01:00
BECMG 1822/1824 BKN013
Wind Visibility Clouds Conditions
300° at 10 knots 10,000+ meters
  • Broken at 1,300' AGL
Becoming Sep-19 @ 01:00 to Sep-19 @ 05:00
BECMG 1901/1903 0500 FG VV///
Wind Visibility Clouds Conditions
300° at 10 knots 499 meters
  • Broken at 1,300' AGL
  • Fog
Becoming Sep-19 @ 05:00 to Sep-19 @ 12:00
BECMG 1905/1907 9999 NSW BKN016
Wind Visibility Clouds Conditions
300° at 10 knots 10,000+ meters
  • Broken at 1,600' AGL
TAF LFBH 181100Z 1812/1912 18005KT CAVOK BECMG 1812/1814 30010KT BECMG 1822/1824 BKN013 BECMG 1901/1903 0500 FG VV/// BECMG 1905/1907 9999 NSW BKN016
Issued Sep-18 @ 11:00 UTC
(7 hours ago)
Valid From Sep-18 @ 12:00 UTC
(6 hours ago)
Valid To Sep-19 @ 12:00 UTC
(in 18 hours)
Sep-18 @ 12:00 - Sep-19 @ 12:00
Wind Visibility
180° at 5 knots 10,000+ meters
Clouds
  • No significant clouds
Conditions
Becoming Sep-18 @ 12:00 - Sep-18 @ 22:00
Wind Visibility
300° at 10 knots 10,000+ meters
Clouds
  • No significant clouds
Conditions
Becoming Sep-18 @ 22:00 - Sep-19 @ 01:00
Wind Visibility
300° at 10 knots 10,000+ meters
Clouds
  • Broken at 1,300' AGL
Conditions
Becoming Sep-19 @ 01:00 - Sep-19 @ 05:00
Wind Visibility
300° at 10 knots 499 meters
Clouds
  • Broken at 1,300' AGL
Conditions
  • Fog
Becoming Sep-19 @ 05:00 - Sep-19 @ 12:00
Wind Visibility
300° at 10 knots 10,000+ meters
Clouds
  • Broken at 1,600' AGL
Conditions